createdAt,value
2023-01-28T00:02:08.804Z,52.60
2023-01-28T00:04:35.748Z,44.97
2023-01-28T00:07:03.532Z,40.10
2023-01-28T00:09:30.444Z,44.80
2023-01-28T00:11:59.139Z,43.57
2023-01-28T00:14:26.060Z,44.07
2023-01-28T00:16:53.279Z,42.10
2023-01-28T00:19:20.253Z,50.50
2023-01-28T00:21:47.493Z,48.63
2023-01-28T00:24:14.438Z,52.07
2023-01-28T00:26:41.907Z,45.37
2023-01-28T00:29:08.835Z,49.90
2023-01-28T00:31:37.771Z,51.90
2023-01-28T00:34:04.930Z,53.97
2023-01-28T00:36:32.161Z,47.17
2023-01-28T00:39:00.119Z,52.27
2023-01-28T00:41:29.677Z,42.47
2023-01-28T00:43:56.793Z,45.50
2023-01-28T00:46:26.447Z,45.20
2023-01-28T00:48:53.581Z,49.47
2023-01-28T00:51:21.463Z,45.77
2023-01-28T00:53:48.591Z,47.30
2023-01-28T00:56:17.911Z,51.73
2023-01-28T00:58:45.638Z,47.77
2023-01-28T01:01:23.827Z,50.20
2023-01-28T01:03:57.619Z,50.77
2023-01-28T01:06:25.470Z,47.13
2023-01-28T01:08:52.452Z,41.80
2023-01-28T01:11:19.742Z,41.27
2023-01-28T01:13:52.092Z,40.10
2023-01-28T01:16:19.499Z,43.97
2023-01-28T01:18:46.449Z,39.27
2023-01-28T01:21:19.381Z,39.57
2023-01-28T01:23:47.124Z,49.50
2023-01-28T01:26:15.117Z,44.27
2023-01-28T01:28:42.486Z,46.00
2023-01-28T01:31:18.100Z,40.20
2023-01-28T01:33:47.197Z,41.10
2023-01-28T01:36:16.741Z,44.63
2023-01-28T01:38:43.699Z,46.07
2023-01-28T01:41:25.405Z,39.47
2023-01-28T01:43:54.003Z,37.80
2023-01-28T01:46:44.533Z,40.40
2023-01-28T01:49:18.859Z,40.60
2023-01-28T01:51:48.578Z,43.70
2023-01-28T01:54:17.419Z,43.47
2023-01-28T01:56:47.791Z,44.83
2023-01-28T01:59:20.363Z,46.37
2023-01-28T02:01:48.612Z,43.93
2023-01-28T02:04:24.583Z,46.57
2023-01-28T02:06:52.834Z,47.60
2023-01-28T02:09:36.153Z,44.00
2023-01-28T02:12:08.580Z,46.57
2023-01-28T02:14:39.605Z,45.73
2023-01-28T02:17:07.614Z,44.37
2023-01-28T02:19:54.515Z,52.17
2023-01-28T02:22:50.774Z,39.43
2023-01-28T02:25:52.998Z,44.97
2023-01-28T02:28:25.897Z,46.00
2023-01-28T02:31:11.585Z,42.50
2023-01-28T02:34:00.057Z,41.83
2023-01-28T02:36:36.502Z,47.90
2023-01-28T02:39:12.466Z,38.63
2023-01-28T02:41:59.532Z,50.03
2023-01-28T02:44:26.747Z,35.67
2023-01-28T02:47:12.522Z,42.80
2023-01-28T02:49:43.982Z,45.97
2023-01-28T02:53:11.550Z,40.87
2023-01-28T02:56:02.189Z,39.23
2023-01-28T02:58:49.473Z,39.93
2023-01-28T03:01:25.195Z,38.77
2023-01-28T03:04:09.132Z,45.47
2023-01-28T03:06:43.905Z,38.33
2023-01-28T03:09:28.219Z,45.93
2023-01-28T03:12:17.927Z,45.43
2023-01-28T03:15:09.446Z,40.20
2023-01-28T03:18:14.232Z,35.17
2023-01-28T03:21:05.339Z,33.83
2023-01-28T03:23:59.837Z,35.50
2023-01-28T03:26:49.367Z,34.07
2023-01-28T03:29:40.569Z,39.13
2023-01-28T03:32:28.905Z,36.30
2023-01-28T03:35:15.458Z,35.20
2023-01-28T03:37:42.751Z,31.23
2023-01-28T03:40:11.612Z,33.57
2023-01-28T03:42:38.580Z,37.53
2023-01-28T03:45:08.067Z,31.37
2023-01-28T03:47:35.208Z,31.03
2023-01-28T03:50:02.976Z,30.40
2023-01-28T03:52:32.209Z,32.10
2023-01-28T03:55:01.041Z,30.53
2023-01-28T03:57:31.567Z,31.60
2023-01-28T03:59:59.049Z,31.13
2023-01-28T04:02:27.312Z,29.97
2023-01-28T04:04:54.660Z,35.13
2023-01-28T04:07:21.611Z,29.53
2023-01-28T04:09:48.842Z,34.53
2023-01-28T04:12:16.036Z,31.43
2023-01-28T04:14:43.297Z,29.73
2023-01-28T04:17:10.754Z,28.47
2023-01-28T04:19:38.374Z,30.00
2023-01-28T04:22:07.517Z,29.57
2023-01-28T04:24:34.764Z,30.87
2023-01-28T04:27:01.759Z,27.93
2023-01-28T04:29:29.029Z,24.37
2023-01-28T04:31:56.391Z,30.77
2023-01-28T04:34:23.686Z,28.40
2023-01-28T04:36:50.660Z,27.47
2023-01-28T04:39:18.023Z,27.80
2023-01-28T04:41:46.051Z,32.27
2023-01-28T04:44:13.857Z,28.20
2023-01-28T04:46:40.838Z,34.73
2023-01-28T04:49:08.179Z,27.67
2023-01-28T04:51:35.148Z,27.33
2023-01-28T04:54:02.403Z,30.10
2023-01-28T04:56:29.409Z,28.60
2023-01-28T04:58:56.659Z,32.50
2023-01-28T05:01:24.692Z,25.33
2023-01-28T05:03:52.185Z,30.97
2023-01-28T05:06:19.162Z,30.23
2023-01-28T05:08:46.444Z,27.03
2023-01-28T05:11:13.831Z,26.30
2023-01-28T05:13:41.096Z,29.03
2023-01-28T05:16:08.307Z,25.97
2023-01-28T05:18:35.514Z,29.93
2023-01-28T05:21:02.441Z,27.47
2023-01-28T05:23:29.691Z,25.77
2023-01-28T05:25:56.668Z,27.93
2023-01-28T05:28:24.081Z,29.90
2023-01-28T05:30:51.113Z,25.37
2023-01-28T05:33:18.448Z,28.53
2023-01-28T05:35:45.470Z,29.37
2023-01-28T05:38:14.931Z,23.60
2023-01-28T05:40:42.344Z,28.63
2023-01-28T05:43:09.534Z,28.20
2023-01-28T05:45:36.443Z,23.10
2023-01-28T05:48:03.967Z,27.63
2023-01-28T05:50:30.875Z,30.20
2023-01-28T05:52:58.187Z,26.33
2023-01-28T05:55:25.235Z,25.17
2023-01-28T05:57:52.589Z,32.83
2023-01-28T06:00:19.973Z,28.70
2023-01-28T06:02:47.180Z,31.27
2023-01-28T06:05:14.471Z,27.53
2023-01-28T06:07:45.298Z,26.00
2023-01-28T06:10:13.317Z,27.10
2023-01-28T06:12:41.107Z,27.40
2023-01-28T06:15:08.619Z,24.87
2023-01-28T06:17:35.916Z,29.03
2023-01-28T06:20:03.078Z,24.07
2023-01-28T06:22:30.316Z,25.70
2023-01-28T06:24:57.291Z,28.33
2023-01-28T06:27:24.532Z,27.10
2023-01-28T06:29:51.529Z,28.33
2023-01-28T06:32:18.853Z,22.23
2023-01-28T06:34:45.791Z,36.57
2023-01-28T06:37:14.804Z,31.37
2023-01-28T06:39:41.743Z,27.13
2023-01-28T06:42:09.109Z,31.63
2023-01-28T06:44:36.179Z,32.13
2023-01-28T06:47:03.584Z,30.97
2023-01-28T06:49:30.586Z,30.90
2023-01-28T06:51:57.862Z,32.57
2023-01-28T06:54:25.327Z,36.90
2023-01-28T06:56:52.610Z,36.80
2023-01-28T06:59:19.559Z,29.37
2023-01-28T07:01:46.815Z,37.20
2023-01-28T07:04:13.830Z,30.67
2023-01-28T07:06:41.180Z,31.63
2023-01-28T07:09:08.112Z,28.10
2023-01-28T07:11:35.487Z,36.40
2023-01-28T07:14:02.505Z,25.80
2023-01-28T07:16:29.738Z,32.67
2023-01-28T07:18:56.672Z,28.13
2023-01-28T07:21:25.927Z,32.73
2023-01-28T07:23:56.234Z,29.60
2023-01-28T07:26:23.772Z,30.07
2023-01-28T07:28:50.763Z,29.93
2023-01-28T07:31:18.083Z,31.37
2023-01-28T07:33:45.257Z,28.57
2023-01-28T07:36:12.469Z,29.43
2023-01-28T07:38:39.424Z,28.10
2023-01-28T07:41:07.034Z,30.93
2023-01-28T07:43:34.063Z,31.43
2023-01-28T07:46:02.450Z,29.50
2023-01-28T07:48:29.356Z,36.03
2023-01-28T07:51:00.042Z,30.33
2023-01-28T07:53:27.039Z,34.70
2023-01-28T07:56:00.688Z,34.17
2023-01-28T07:58:27.850Z,31.13
2023-01-28T08:01:01.360Z,34.03
2023-01-28T08:03:29.317Z,29.33
2023-01-28T08:05:57.974Z,32.10
2023-01-28T08:08:27.244Z,34.67
2023-01-28T08:10:54.640Z,31.70
2023-01-28T08:13:21.870Z,30.13
2023-01-28T08:15:49.200Z,27.57
2023-01-28T08:18:16.742Z,27.30
2023-01-28T08:20:45.446Z,28.47
2023-01-28T08:23:18.230Z,30.57
2023-01-28T08:25:47.276Z,26.07
2023-01-28T08:28:15.718Z,30.43
2023-01-28T08:30:44.158Z,26.13
2023-01-28T08:33:13.245Z,25.57
2023-01-28T08:35:40.968Z,25.27
2023-01-28T08:38:08.787Z,24.43
2023-01-28T08:40:36.429Z,22.17
2023-01-28T08:43:03.783Z,27.13
2023-01-28T08:45:32.017Z,25.00
2023-01-28T08:48:05.184Z,24.57
2023-01-28T08:50:37.901Z,24.47
2023-01-28T08:53:11.549Z,22.73
2023-01-28T08:55:39.089Z,22.70
2023-01-28T08:58:08.122Z,23.67
2023-01-28T09:00:36.473Z,25.63
2023-01-28T09:03:06.043Z,23.57
2023-01-28T09:05:35.362Z,23.50
2023-01-28T09:08:04.472Z,23.10
2023-01-28T09:10:31.754Z,22.97
2023-01-28T09:12:58.742Z,18.07
2023-01-28T09:15:25.968Z,17.13
2023-01-28T09:17:58.797Z,22.53
2023-01-28T09:20:26.875Z,19.70
2023-01-28T09:22:54.283Z,20.07
2023-01-28T09:25:21.980Z,20.10
2023-01-28T09:27:49.003Z,25.50
2023-01-28T09:30:17.190Z,24.30
2023-01-28T09:32:44.681Z,22.33
2023-01-28T09:35:12.150Z,22.27
2023-01-28T09:37:39.060Z,20.43
2023-01-28T09:40:07.095Z,23.33
2023-01-28T09:42:55.819Z,23.83
2023-01-28T09:45:36.456Z,29.10
2023-01-28T09:48:06.599Z,29.73
2023-01-28T09:50:43.749Z,25.73
2023-01-28T09:53:13.069Z,27.93
2023-01-28T09:55:46.035Z,26.83
2023-01-28T09:58:16.154Z,26.17
2023-01-28T10:01:29.007Z,25.73
2023-01-28T10:04:23.132Z,25.93
2023-01-28T10:07:07.431Z,25.27
2023-01-28T10:10:22.497Z,26.87
2023-01-28T10:13:15.089Z,29.83
2023-01-28T10:16:00.330Z,28.30
2023-01-28T10:18:40.915Z,26.77
2023-01-28T10:21:15.558Z,29.23
2023-01-28T10:23:54.883Z,27.40
2023-01-28T10:26:25.253Z,28.33
2023-01-28T10:28:58.396Z,28.13
2023-01-28T10:31:33.310Z,30.73
2023-01-28T10:34:01.456Z,27.10
2023-01-28T10:36:29.250Z,28.00
2023-01-28T10:38:56.641Z,29.00
2023-01-28T10:41:25.851Z,25.50
2023-01-28T10:43:53.159Z,30.80
2023-01-28T10:46:26.813Z,26.37
2023-01-28T10:48:59.936Z,24.03
2023-01-28T10:51:34.814Z,25.97
2023-01-28T10:54:02.482Z,25.00
2023-01-28T10:56:32.127Z,23.37
2023-01-28T10:59:04.077Z,24.07
2023-01-28T11:01:45.053Z,23.67
2023-01-28T11:04:27.165Z,22.70
2023-01-28T11:07:21.122Z,22.87
2023-01-28T11:09:51.411Z,20.87
2023-01-28T11:12:26.584Z,24.67
2023-01-28T11:14:56.107Z,23.10
2023-01-28T11:17:25.788Z,23.77
2023-01-28T11:19:54.969Z,22.90
2023-01-28T11:22:38.315Z,20.47
2023-01-28T11:25:27.571Z,21.87
2023-01-28T11:27:55.556Z,21.43
2023-01-28T11:30:34.668Z,22.20
2023-01-28T11:33:24.939Z,23.60
2023-01-28T11:36:05.237Z,24.33
2023-01-28T11:38:32.204Z,22.67
2023-01-28T11:41:01.330Z,24.03
2023-01-28T11:43:31.259Z,25.17
2023-01-28T11:46:20.556Z,22.30
2023-01-28T11:49:22.125Z,22.83
2023-01-28T11:52:04.467Z,20.33
2023-01-28T11:54:57.616Z,28.37
2023-01-28T11:57:35.126Z,22.07
2023-01-28T12:00:26.724Z,23.20
2023-01-28T12:03:18.601Z,18.17
2023-01-28T12:05:53.408Z,19.97
2023-01-28T12:08:27.266Z,21.37
2023-01-28T12:11:20.628Z,21.93
2023-01-28T12:14:21.255Z,20.50
2023-01-28T12:17:00.206Z,20.63
2023-01-28T12:19:41.670Z,23.60
2023-01-28T12:22:14.343Z,22.00
2023-01-28T12:25:07.435Z,22.70
2023-01-28T12:27:45.340Z,23.13
2023-01-28T12:30:24.155Z,17.03
2023-01-28T12:33:01.556Z,19.80
2023-01-28T12:35:45.716Z,26.77
2023-01-28T12:38:35.115Z,27.93
2023-01-28T12:41:20.595Z,21.17
2023-01-28T12:44:08.371Z,22.27
2023-01-28T12:46:41.745Z,20.57
2023-01-28T12:49:14.463Z,22.23
2023-01-28T12:52:03.557Z,20.97
2023-01-28T12:54:53.260Z,19.90
2023-01-28T12:57:26.659Z,20.63
2023-01-28T13:00:33.890Z,20.63
2023-01-28T13:03:11.443Z,20.60
2023-01-28T13:05:44.005Z,20.93
2023-01-28T13:08:30.517Z,21.33
2023-01-28T13:11:02.992Z,17.90
2023-01-28T13:13:30.315Z,19.20
2023-01-28T13:15:57.779Z,19.90
2023-01-28T13:18:33.415Z,18.60
2023-01-28T13:21:02.330Z,15.17
2023-01-28T13:23:42.451Z,15.93
2023-01-28T13:26:23.749Z,19.70
2023-01-28T13:28:53.289Z,16.43
2023-01-28T13:31:23.440Z,20.10
2023-01-28T13:33:56.525Z,15.30
2023-01-28T13:36:29.169Z,17.40
2023-01-28T13:39:04.883Z,17.13
2023-01-28T13:41:45.401Z,18.67
2023-01-28T13:44:31.669Z,14.80
2023-01-28T13:47:16.464Z,16.17
2023-01-28T13:50:13.897Z,16.60
2023-01-28T13:53:04.968Z,20.57
2023-01-28T13:55:44.642Z,19.33
2023-01-28T13:59:00.770Z,16.13
2023-01-28T14:02:01.691Z,14.57
2023-01-28T14:04:28.672Z,17.90
2023-01-28T14:07:26.470Z,19.40
2023-01-28T14:10:21.201Z,17.73
2023-01-28T14:12:54.196Z,20.07
2023-01-28T14:15:40.533Z,16.17
2023-01-28T14:18:21.559Z,19.00
2023-01-28T14:20:49.709Z,19.40
2023-01-28T14:23:22.296Z,19.37
2023-01-28T14:26:13.802Z,20.83
2023-01-28T14:28:58.850Z,19.63
2023-01-28T14:31:34.031Z,18.00
2023-01-28T14:34:22.080Z,17.80
2023-01-28T14:36:50.846Z,17.57
2023-01-28T14:39:21.529Z,17.87
2023-01-28T14:41:52.381Z,15.20
2023-01-28T14:44:40.128Z,18.40
2023-01-28T14:47:25.712Z,20.63
2023-01-28T14:50:05.456Z,20.20
2023-01-28T14:53:00.531Z,17.17
2023-01-28T14:55:39.715Z,21.10
2023-01-28T14:58:15.117Z,20.10
2023-01-28T15:00:54.208Z,18.00
2023-01-28T15:03:25.944Z,21.10
2023-01-28T15:06:15.191Z,17.93
2023-01-28T15:08:42.361Z,19.30
2023-01-28T15:11:14.370Z,18.53
2023-01-28T15:13:47.608Z,18.07
2023-01-28T15:16:23.665Z,17.17
2023-01-28T15:18:51.611Z,12.30
2023-01-28T15:21:26.912Z,17.77
2023-01-28T15:24:01.510Z,11.87
2023-01-28T15:26:32.990Z,12.20
2023-01-28T15:29:00.864Z,12.00
2023-01-28T15:31:40.728Z,12.97
2023-01-28T15:34:17.972Z,9.80
2023-01-28T15:36:47.783Z,14.13
2023-01-28T15:39:20.347Z,12.73
2023-01-28T15:41:57.784Z,20.27
2023-01-28T15:44:38.077Z,15.00
2023-01-28T15:47:20.544Z,19.70
2023-01-28T15:49:51.638Z,18.03
2023-01-28T15:52:19.568Z,19.47
2023-01-28T15:54:51.833Z,15.47
2023-01-28T15:57:27.433Z,14.57
2023-01-28T16:00:25.078Z,16.17
2023-01-28T16:02:55.312Z,19.90
2023-01-28T16:05:42.124Z,14.47
2023-01-28T16:08:17.846Z,18.13
2023-01-28T16:10:56.154Z,14.93
2023-01-28T16:13:26.815Z,16.47
2023-01-28T16:15:56.113Z,17.17
2023-01-28T16:18:29.997Z,16.40
2023-01-28T16:20:59.244Z,16.73
2023-01-28T16:23:28.619Z,16.07
2023-01-28T16:26:25.729Z,16.43
2023-01-28T16:28:53.388Z,9.43
2023-01-28T16:31:21.297Z,11.57
2023-01-28T16:33:48.880Z,9.10
2023-01-28T16:36:19.419Z,8.53
2023-01-28T16:38:46.982Z,10.57
2023-01-28T16:41:23.287Z,11.50
2023-01-28T16:43:50.501Z,11.80
2023-01-28T16:46:17.529Z,14.50
2023-01-28T16:48:45.393Z,10.40
2023-01-28T16:51:18.191Z,12.43
2023-01-28T16:53:49.772Z,13.00
2023-01-28T16:56:44.354Z,9.53
2023-01-28T16:59:15.836Z,11.73
2023-01-28T17:01:44.155Z,8.83
2023-01-28T17:04:12.983Z,9.67
2023-01-28T17:06:43.439Z,11.20
2023-01-28T17:09:12.236Z,12.90
2023-01-28T17:11:42.493Z,10.40
2023-01-28T17:14:12.773Z,12.57
2023-01-28T17:16:40.290Z,11.30
2023-01-28T17:19:07.547Z,9.40
2023-01-28T17:21:34.573Z,11.33
2023-01-28T17:24:03.205Z,9.67
2023-01-28T17:26:30.666Z,8.50
2023-01-28T17:28:57.949Z,6.70
2023-01-28T17:31:26.452Z,7.30
2023-01-28T17:33:58.555Z,9.77
2023-01-28T17:36:26.738Z,9.13
2023-01-28T17:38:55.214Z,7.50
2023-01-28T17:41:22.487Z,6.17
2023-01-28T17:43:55.299Z,10.93
2023-01-28T17:46:24.399Z,5.53
2023-01-28T17:48:52.238Z,4.73
2023-01-28T17:51:19.380Z,6.73
2023-01-28T17:53:51.497Z,5.30
2023-01-28T17:56:25.800Z,6.63
2023-01-28T17:58:57.876Z,7.07
2023-01-28T18:01:26.336Z,5.80
2023-01-28T18:03:54.122Z,5.80
2023-01-28T18:06:21.566Z,7.67
2023-01-28T18:08:48.987Z,4.30
2023-01-28T18:11:18.812Z,4.63
2023-01-28T18:13:46.228Z,5.90
2023-01-28T18:16:17.968Z,5.60
2023-01-28T18:18:45.946Z,6.73
2023-01-28T18:21:56.961Z,5.57
2023-01-28T18:24:27.319Z,5.93
2023-01-28T18:26:58.257Z,6.10
2023-01-28T18:29:30.620Z,5.17
2023-01-28T18:31:59.544Z,5.93
2023-01-28T18:34:28.708Z,6.03
2023-01-28T18:36:57.225Z,6.07
2023-01-28T18:39:27.672Z,7.10
2023-01-28T18:41:54.959Z,6.13
2023-01-28T18:44:23.931Z,6.23
2023-01-28T18:46:52.068Z,6.43
2023-01-28T18:49:19.505Z,5.57
2023-01-28T18:51:46.485Z,6.40
2023-01-28T18:54:15.833Z,5.77
2023-01-28T18:56:44.036Z,6.93
2023-01-28T18:59:13.570Z,7.10
2023-01-28T19:01:42.679Z,5.70
2023-01-28T19:04:10.528Z,6.90
2023-01-28T19:06:37.783Z,6.77
2023-01-28T19:09:07.213Z,7.03
2023-01-28T19:11:35.486Z,6.77
2023-01-28T19:14:02.869Z,8.23
2023-01-28T19:16:30.542Z,7.40
2023-01-28T19:19:00.121Z,7.37
2023-01-28T19:21:28.574Z,9.20
2023-01-28T19:24:01.649Z,11.60
2023-01-28T19:26:31.007Z,11.50
2023-01-28T19:28:58.753Z,9.70
2023-01-28T19:31:27.086Z,9.23
2023-01-28T19:33:59.680Z,11.70
2023-01-28T19:36:28.845Z,9.37
2023-01-28T19:39:06.209Z,10.17
2023-01-28T19:41:33.549Z,8.10
2023-01-28T19:44:01.136Z,8.43
2023-01-28T19:46:28.238Z,10.43
2023-01-28T19:48:55.849Z,11.43
2023-01-28T19:51:23.220Z,9.40
2023-01-28T19:53:54.962Z,9.10
2023-01-28T19:56:25.638Z,6.67
2023-01-28T19:58:54.611Z,9.77
2023-01-28T20:01:24.441Z,10.43
2023-01-28T20:03:55.242Z,7.80
2023-01-28T20:06:23.936Z,9.50
2023-01-28T20:08:56.347Z,10.73
2023-01-28T20:11:23.981Z,8.07
2023-01-28T20:13:51.797Z,10.57
2023-01-28T20:16:21.766Z,9.20
2023-01-28T20:19:00.941Z,7.87
2023-01-28T20:21:29.957Z,7.37
2023-01-28T20:23:58.384Z,8.27
2023-01-28T20:26:31.258Z,9.50
2023-01-28T20:29:01.663Z,10.80
2023-01-28T20:31:28.823Z,6.13
2023-01-28T20:33:56.129Z,8.40
2023-01-28T20:36:23.075Z,9.30
2023-01-28T20:38:50.403Z,10.10
2023-01-28T20:41:22.885Z,9.50
2023-01-28T20:43:51.626Z,8.07
2023-01-28T20:46:24.458Z,8.43
2023-01-28T20:48:54.515Z,9.47
2023-01-28T20:51:23.734Z,9.63
2023-01-28T20:53:51.620Z,8.87
2023-01-28T20:56:21.140Z,9.97
2023-01-28T20:58:53.549Z,10.93
2023-01-28T21:01:24.322Z,10.30
2023-01-28T21:03:51.909Z,9.70
2023-01-28T21:06:19.547Z,10.47
2023-01-28T21:08:47.051Z,7.20
2023-01-28T21:11:14.508Z,8.77
2023-01-28T21:13:41.824Z,11.27
2023-01-28T21:16:08.994Z,10.43
2023-01-28T21:18:36.757Z,11.87
2023-01-28T21:21:13.614Z,10.40
2023-01-28T21:23:41.396Z,8.50
2023-01-28T21:26:08.534Z,9.83
2023-01-28T21:28:35.704Z,7.87
2023-01-28T21:31:08.219Z,11.07
2023-01-28T21:33:35.809Z,9.30
2023-01-28T21:36:07.537Z,12.47
2023-01-28T21:38:34.716Z,9.63
2023-01-28T21:41:03.336Z,10.27
2023-01-28T21:43:31.511Z,8.27
2023-01-28T21:45:59.296Z,9.17
2023-01-28T21:48:27.027Z,13.33
2023-01-28T21:51:12.489Z,9.60
2023-01-28T21:53:41.088Z,12.47
2023-01-28T21:56:10.159Z,7.50
2023-01-28T21:58:56.532Z,10.53
2023-01-28T22:01:23.684Z,9.33
2023-01-28T22:03:51.004Z,10.87
2023-01-28T22:06:18.048Z,8.90
2023-01-28T22:08:45.496Z,11.50
2023-01-28T22:11:12.452Z,9.50
2023-01-28T22:13:39.847Z,8.13
2023-01-28T22:16:07.225Z,9.43
2023-01-28T22:18:34.447Z,11.03
2023-01-28T22:21:04.839Z,9.57
2023-01-28T22:23:32.707Z,8.03
2023-01-28T22:25:59.831Z,10.50
2023-01-28T22:28:28.536Z,12.73
2023-01-28T22:31:04.435Z,12.77
2023-01-28T22:33:31.739Z,8.57
2023-01-28T22:35:58.683Z,10.40
2023-01-28T22:38:25.984Z,8.37
2023-01-28T22:40:52.969Z,7.00
2023-01-28T22:43:20.885Z,9.50
2023-01-28T22:45:49.159Z,9.83
2023-01-28T22:48:16.431Z,8.80
2023-01-28T22:50:43.347Z,9.83
2023-01-28T22:53:10.543Z,11.77
2023-01-28T22:55:37.806Z,10.63
2023-01-28T22:58:07.258Z,10.70
2023-01-28T23:00:34.173Z,9.67
2023-01-28T23:03:01.869Z,9.37
2023-01-28T23:05:28.984Z,13.57
2023-01-28T23:08:10.169Z,10.77
2023-01-28T23:10:39.206Z,10.57
2023-01-28T23:13:08.054Z,8.77
2023-01-28T23:15:53.598Z,9.83
2023-01-28T23:18:42.826Z,8.37
2023-01-28T23:21:42.517Z,11.40
2023-01-28T23:24:19.123Z,11.20
2023-01-28T23:26:49.496Z,10.30
2023-01-28T23:29:17.781Z,11.07
2023-01-28T23:31:47.070Z,9.40
2023-01-28T23:34:16.194Z,9.60
2023-01-28T23:36:43.748Z,11.27
2023-01-28T23:39:11.012Z,12.70
2023-01-28T23:41:38.403Z,11.63
2023-01-28T23:44:08.486Z,12.17
2023-01-28T23:46:39.934Z,9.07
2023-01-28T23:49:09.705Z,8.17
2023-01-28T23:51:36.727Z,9.77
2023-01-28T23:54:04.004Z,10.77
2023-01-28T23:56:30.971Z,9.80
2023-01-28T23:58:58.238Z,9.83
